TimeEDT,TemperatureF,Dew PointF,Humidity,Sea Level PressureIn,VisibilityMPH,Wind Direction,Wind SpeedMPH,Gust SpeedMPH,PrecipitationIn,Events,Conditions,WindDirDegrees,DateUTC
12:56 AM,55.0,50.0,83,30.17,10.0,East,3.5,-,N/A,,Clear,100,2013-04-24 04:56:00
1:56 AM,54.0,50.0,86,30.16,10.0,ESE,5.8,-,N/A,,Clear,120,2013-04-24 05:56:00
2:56 AM,54.0,51.1,90,30.15,10.0,East,5.8,-,N/A,,Clear,100,2013-04-24 06:56:00
3:56 AM,52.0,50.0,93,30.16,9.0,SSE,4.6,-,N/A,,Clear,150,2013-04-24 07:56:00
4:56 AM,51.1,50.0,96,30.17,7.0,SSE,3.5,-,N/A,,Clear,160,2013-04-24 08:56:00
5:56 AM,51.1,50.0,96,30.19,6.0,South,3.5,-,N/A,,Clear,190,2013-04-24 09:56:00
6:56 AM,51.1,50.0,96,30.21,7.0,South,3.5,-,N/A,,Clear,170,2013-04-24 10:56:00
7:56 AM,55.9,52.0,87,30.22,10.0,Calm,Calm,-,N/A,,Mostly Cloudy,0,2013-04-24 11:56:00
8:28 AM,57.2,53.6,88,30.21,10.0,Calm,Calm,-,N/A,,Overcast,0,2013-04-24 12:28:00
8:56 AM,59.0,53.1,81,30.22,10.0,SSW,5.8,-,N/A,,Overcast,210,2013-04-24 12:56:00
9:56 AM,61.0,54.0,78,30.22,10.0,SSW,6.9,-,N/A,,Mostly Cloudy,210,2013-04-24 13:56:00
10:24 AM,62.6,55.4,77,30.20,10.0,SW,8.1,-,N/A,,Partly Cloudy,220,2013-04-24 14:24:00
10:56 AM,64.9,55.9,73,30.20,10.0,South,6.9,-,N/A,,Partly Cloudy,190,2013-04-24 14:56:00
11:56 AM,68.0,55.0,63,30.19,10.0,SSW,13.8,-,N/A,,Clear,210,2013-04-24 15:56:00
12:56 PM,71.1,55.0,57,30.15,10.0,South,15.0,21.9,N/A,,Clear,190,2013-04-24 16:56:00
1:56 PM,71.1,55.9,59,30.14,10.0,SSW,18.4,26.5,N/A,,Partly Cloudy,200,2013-04-24 17:56:00
2:56 PM,72.0,57.0,59,30.13,10.0,South,17.3,26.5,N/A,,Clear,190,2013-04-24 18:56:00
3:56 PM,72.0,57.9,61,30.11,10.0,SW,18.4,25.3,N/A,,Partly Cloudy,220,2013-04-24 19:56:00
4:56 PM,71.1,57.9,63,30.11,10.0,SW,19.6,26.5,N/A,,Partly Cloudy,230,2013-04-24 20:56:00
5:56 PM,71.1,60.1,68,30.09,10.0,SSW,16.1,25.3,N/A,,Clear,200,2013-04-24 21:56:00
6:56 PM,69.1,60.1,73,30.08,10.0,South,13.8,-,N/A,,Clear,190,2013-04-24 22:56:00
7:56 PM,68.0,61.0,78,30.09,10.0,SSW,11.5,-,N/A,,Clear,200,2013-04-24 23:56:00
8:56 PM,66.0,62.1,87,30.09,10.0,South,9.2,-,N/A,,Clear,190,2013-04-25 00:56:00
9:56 PM,66.9,62.1,84,30.09,10.0,SSW,12.7,-,N/A,,Clear,210,2013-04-25 01:56:00
10:56 PM,66.9,63.0,87,30.11,10.0,SSW,9.2,-,N/A,,Clear,210,2013-04-25 02:56:00
11:56 PM,66.9,63.0,87,30.11,9.0,SSW,8.1,-,N/A,,Clear,200,2013-04-25 03:56:00